createdAt,value
2023-02-04T00:00:07.461Z,9.78
2023-02-04T00:02:34.517Z,9.93
2023-02-04T00:05:01.351Z,9.88
2023-02-04T00:07:29.972Z,9.96
2023-02-04T00:09:56.570Z,9.99
2023-02-04T00:12:23.483Z,10.05
2023-02-04T00:14:50.416Z,10.05
2023-02-04T00:17:17.024Z,10.05
2023-02-04T00:19:43.676Z,10.01
2023-02-04T00:22:10.350Z,10.13
2023-02-04T00:24:38.224Z,10.17
2023-02-04T00:27:06.224Z,10.10
2023-02-04T00:29:32.878Z,10.27
2023-02-04T00:31:59.866Z,10.29
2023-02-04T00:34:27.392Z,9.95
2023-02-04T00:36:54.038Z,9.85
2023-02-04T00:39:20.750Z,9.95
2023-02-04T00:41:47.366Z,10.00
2023-02-04T00:44:14.373Z,9.94
2023-02-04T00:46:42.398Z,10.05
2023-02-04T00:49:10.748Z,10.06
2023-02-04T00:51:39.297Z,10.03
2023-02-04T00:54:07.200Z,10.00
2023-02-04T00:56:34.358Z,10.06
2023-02-04T00:59:01.294Z,10.04
2023-02-04T01:01:28.065Z,10.08
2023-02-04T01:03:54.971Z,10.08
2023-02-04T01:06:23.828Z,9.99
2023-02-04T01:08:50.611Z,10.02
2023-02-04T01:11:18.051Z,9.81
2023-02-04T01:13:44.672Z,9.87
2023-02-04T01:16:13.127Z,9.87
2023-02-04T01:18:39.965Z,9.81
2023-02-04T01:21:06.868Z,9.85
2023-02-04T01:23:33.521Z,9.90
2023-02-04T01:26:00.381Z,9.90
2023-02-04T01:28:27.410Z,9.86
2023-02-04T01:30:54.355Z,10.00
2023-02-04T01:33:21.197Z,9.97
2023-02-04T01:35:47.980Z,9.94
2023-02-04T01:38:14.951Z,9.96
2023-02-04T01:40:42.310Z,9.96
2023-02-04T01:43:10.205Z,9.98
2023-02-04T01:45:37.028Z,9.78
2023-02-04T01:48:05.313Z,9.87
2023-02-04T01:50:33.430Z,9.82
2023-02-04T01:53:00.539Z,9.93
2023-02-04T01:55:30.066Z,9.90
2023-02-04T01:57:58.691Z,9.96
2023-02-04T02:00:32.188Z,9.81
2023-02-04T02:03:00.016Z,9.90
2023-02-04T02:05:38.809Z,9.86
2023-02-04T02:08:07.457Z,9.80
2023-02-04T02:10:36.373Z,9.76
2023-02-04T02:13:04.393Z,9.73
2023-02-04T02:15:31.296Z,9.79
2023-02-04T02:17:57.948Z,9.75
2023-02-04T02:20:26.513Z,9.76
2023-02-04T02:23:42.866Z,9.79
2023-02-04T02:26:09.578Z,9.81
2023-02-04T02:28:36.305Z,9.63
2023-02-04T02:31:03.340Z,9.75
2023-02-04T02:33:30.070Z,9.72
2023-02-04T02:35:56.810Z,9.76
2023-02-04T02:38:24.645Z,9.75
2023-02-04T02:40:52.486Z,9.57
2023-02-04T02:43:22.758Z,9.69
2023-02-04T02:45:50.244Z,9.70
2023-02-04T02:48:17.031Z,9.66
2023-02-04T02:50:44.326Z,9.76
2023-02-04T02:53:13.747Z,9.83
2023-02-04T02:55:42.099Z,9.70
2023-02-04T02:58:29.568Z,9.72
2023-02-04T03:00:57.510Z,9.66
2023-02-04T03:03:28.319Z,9.65
2023-02-04T03:06:03.389Z,9.72
2023-02-04T03:08:30.690Z,9.71
2023-02-04T03:10:57.359Z,9.72
2023-02-04T03:13:24.316Z,9.57
2023-02-04T03:15:51.163Z,9.49
2023-02-04T03:18:20.161Z,9.47
2023-02-04T03:20:48.698Z,9.62
2023-02-04T03:23:15.556Z,9.44
2023-02-04T03:25:43.147Z,9.56
2023-02-04T03:28:10.154Z,9.47
2023-02-04T03:30:37.152Z,9.35
2023-02-04T03:33:03.979Z,9.58
2023-02-04T03:35:30.638Z,9.53
2023-02-04T03:37:57.517Z,9.63
2023-02-04T03:40:24.119Z,9.58
2023-02-04T03:42:50.716Z,9.49
2023-02-04T03:45:17.444Z,9.55
2023-02-04T03:47:44.078Z,9.63
2023-02-04T03:50:13.150Z,9.38
2023-02-04T03:52:39.965Z,9.30
2023-02-04T03:55:07.108Z,9.43
2023-02-04T03:57:33.722Z,9.52
2023-02-04T04:00:00.339Z,9.39
2023-02-04T04:02:27.119Z,9.39
2023-02-04T04:04:53.703Z,9.26
2023-02-04T04:07:20.617Z,9.28
2023-02-04T04:09:47.261Z,9.32
2023-02-04T04:12:13.860Z,9.25
2023-02-04T04:14:40.478Z,9.28
2023-02-04T04:17:07.107Z,9.31
2023-02-04T04:19:33.796Z,9.21
2023-02-04T04:22:00.365Z,9.43
2023-02-04T04:24:26.982Z,9.25
2023-02-04T04:26:53.557Z,9.39
2023-02-04T04:29:20.148Z,9.16
2023-02-04T04:31:46.761Z,9.13
2023-02-04T04:34:13.504Z,9.08
2023-02-04T04:36:40.160Z,8.91
2023-02-04T04:39:06.730Z,9.09
2023-02-04T04:41:33.307Z,9.11
2023-02-04T04:44:00.034Z,9.13
2023-02-04T04:46:26.696Z,9.23
2023-02-04T04:48:53.275Z,9.09
2023-02-04T04:51:19.908Z,8.91
2023-02-04T04:53:46.553Z,9.05
2023-02-04T04:56:13.265Z,9.01
2023-02-04T04:58:39.972Z,9.02
2023-02-04T05:01:06.763Z,8.86
2023-02-04T05:03:33.667Z,8.98
2023-02-04T05:06:00.333Z,9.16
2023-02-04T05:08:26.940Z,9.23
2023-02-04T05:10:53.504Z,9.31
2023-02-04T05:13:20.064Z,9.13
2023-02-04T05:15:46.843Z,9.15
2023-02-04T05:18:13.426Z,9.01
2023-02-04T05:20:40.060Z,9.13
2023-02-04T05:23:06.672Z,9.20
2023-02-04T05:25:33.493Z,9.03
2023-02-04T05:28:00.146Z,9.07
2023-02-04T05:30:26.854Z,8.98
2023-02-04T05:32:53.555Z,9.06
2023-02-04T05:35:20.448Z,9.03
2023-02-04T05:37:47.112Z,9.11
2023-02-04T05:40:14.040Z,8.95
2023-02-04T05:42:41.741Z,8.94
2023-02-04T05:45:15.340Z,9.05
2023-02-04T05:47:42.380Z,9.03
2023-02-04T05:50:09.417Z,8.92
2023-02-04T05:52:36.022Z,8.98
2023-02-04T05:55:02.831Z,8.96
2023-02-04T05:57:29.842Z,9.08
2023-02-04T05:59:56.561Z,9.10
2023-02-04T06:02:23.214Z,8.95
2023-02-04T06:04:49.809Z,9.01
2023-02-04T06:07:16.434Z,8.94
2023-02-04T06:09:43.082Z,9.02
2023-02-04T06:12:10.525Z,8.89
2023-02-04T06:14:37.165Z,8.90
2023-02-04T06:17:04.021Z,8.75
2023-02-04T06:19:30.686Z,8.84
2023-02-04T06:21:57.383Z,8.63
2023-02-04T06:24:24.059Z,8.74
2023-02-04T06:26:50.700Z,8.60
2023-02-04T06:29:17.310Z,8.61
2023-02-04T06:31:44.666Z,8.62
2023-02-04T06:34:11.427Z,8.56
2023-02-04T06:36:37.996Z,8.72
2023-02-04T06:39:04.625Z,8.85
2023-02-04T06:41:31.290Z,8.81
2023-02-04T06:43:57.949Z,8.66
2023-02-04T06:46:24.727Z,8.79
2023-02-04T06:48:51.412Z,8.74
2023-02-04T06:51:18.070Z,8.83
2023-02-04T06:53:45.851Z,8.79
2023-02-04T06:56:12.609Z,8.92
2023-02-04T06:58:39.289Z,8.78
2023-02-04T07:01:06.356Z,8.68
2023-02-04T07:03:33.044Z,8.77
2023-02-04T07:05:59.765Z,8.72
2023-02-04T07:08:26.423Z,8.67
2023-02-04T07:10:53.031Z,8.74
2023-02-04T07:13:19.624Z,8.68
2023-02-04T07:15:46.345Z,8.71
2023-02-04T07:18:13.003Z,8.73
2023-02-04T07:20:39.623Z,8.45
2023-02-04T07:23:06.280Z,8.56
2023-02-04T07:25:32.909Z,8.61
2023-02-04T07:28:01.648Z,8.50
2023-02-04T07:30:28.461Z,8.61
2023-02-04T07:32:55.166Z,8.59
2023-02-04T07:35:21.923Z,8.81
2023-02-04T07:37:48.605Z,8.75
2023-02-04T07:40:15.374Z,8.83
2023-02-04T07:42:42.094Z,8.81
2023-02-04T07:45:15.293Z,8.83
2023-02-04T07:47:41.896Z,8.86
2023-02-04T07:50:08.750Z,9.00
2023-02-04T07:52:35.344Z,8.93
2023-02-04T07:55:01.985Z,8.99
2023-02-04T07:57:30.242Z,8.80
2023-02-04T07:59:57.245Z,8.90
2023-02-04T08:02:24.018Z,8.79
2023-02-04T08:04:50.785Z,8.96
2023-02-04T08:07:17.412Z,8.91
2023-02-04T08:09:44.089Z,8.94
2023-02-04T08:12:10.744Z,8.84
2023-02-04T08:14:38.679Z,9.02
2023-02-04T08:17:05.268Z,9.05
2023-02-04T08:19:31.838Z,8.99
2023-02-04T08:21:58.450Z,8.84
2023-02-04T08:24:25.083Z,8.88
2023-02-04T08:26:51.924Z,8.90
2023-02-04T08:29:18.793Z,8.97
2023-02-04T08:31:47.632Z,9.00
2023-02-04T08:34:14.297Z,9.07
2023-02-04T08:36:40.930Z,8.99
2023-02-04T08:39:07.528Z,9.24
2023-02-04T08:41:34.106Z,9.11
2023-02-04T08:44:03.389Z,9.24
2023-02-04T08:46:30.226Z,9.20
2023-02-04T08:48:57.035Z,9.28
2023-02-04T08:51:23.638Z,9.22
2023-02-04T08:53:50.218Z,9.44
2023-02-04T08:56:19.077Z,9.59
2023-02-04T08:58:46.236Z,9.48
2023-02-04T09:01:13.105Z,9.59
2023-02-04T09:03:40.218Z,9.38
2023-02-04T09:06:07.334Z,9.54
2023-02-04T09:08:34.216Z,9.62
2023-02-04T09:11:00.976Z,9.71
2023-02-04T09:13:28.232Z,9.41
2023-02-04T09:15:54.927Z,9.57
2023-02-04T09:18:22.569Z,9.62
2023-02-04T09:20:49.723Z,9.73
2023-02-04T09:23:16.533Z,9.80
2023-02-04T09:25:44.871Z,9.85
2023-02-04T09:28:13.195Z,9.95
2023-02-04T09:30:41.076Z,9.92
2023-02-04T09:33:08.831Z,9.97
2023-02-04T09:35:35.822Z,9.82
2023-02-04T09:38:02.602Z,9.80
2023-02-04T09:40:34.718Z,9.99
2023-02-04T09:43:03.050Z,9.92
2023-02-04T09:45:36.288Z,10.09
2023-02-04T09:48:05.130Z,10.06
2023-02-04T09:50:32.701Z,9.97
2023-02-04T09:53:03.270Z,9.85
2023-02-04T09:55:35.845Z,9.99
2023-02-04T09:58:05.718Z,9.87
2023-02-04T10:00:32.846Z,9.81
2023-02-04T10:03:02.508Z,9.98
2023-02-04T10:05:34.211Z,9.92
2023-02-04T10:08:00.879Z,9.85
2023-02-04T10:10:28.365Z,9.83
2023-02-04T10:13:01.691Z,10.01
2023-02-04T10:15:28.478Z,10.15
2023-02-04T10:18:01.652Z,10.29
2023-02-04T10:20:28.329Z,10.26
2023-02-04T10:22:56.160Z,10.40
2023-02-04T10:25:25.509Z,10.38
2023-02-04T10:28:00.286Z,10.22
2023-02-04T10:30:37.916Z,9.73
2023-02-04T10:33:24.887Z,9.99
2023-02-04T10:35:53.292Z,10.23
2023-02-04T10:38:20.550Z,10.44
2023-02-04T10:40:47.647Z,10.47
2023-02-04T10:43:21.979Z,10.60
2023-02-04T10:45:56.988Z,10.64
2023-02-04T10:48:24.491Z,10.69
2023-02-04T10:50:51.206Z,10.75
2023-02-04T10:53:41.678Z,10.70
2023-02-04T10:56:17.410Z,10.79
2023-02-04T10:58:44.262Z,10.77
2023-02-04T11:01:12.312Z,10.48
2023-02-04T11:03:40.631Z,10.40
2023-02-04T11:06:13.705Z,10.58
2023-02-04T11:08:40.632Z,10.54
2023-02-04T11:11:16.624Z,10.37
2023-02-04T11:14:00.819Z,10.39
2023-02-04T11:16:30.422Z,10.39
2023-02-04T11:18:59.826Z,10.31
2023-02-04T11:21:32.939Z,10.36
2023-02-04T11:24:11.705Z,10.33
2023-02-04T11:26:46.425Z,10.22
2023-02-04T11:29:16.011Z,10.34
2023-02-04T11:31:44.263Z,10.42
2023-02-04T11:34:18.345Z,10.52
2023-02-04T11:36:57.070Z,10.41
2023-02-04T11:39:28.974Z,10.83
2023-02-04T11:41:55.751Z,10.84
2023-02-04T11:44:23.229Z,11.19
2023-02-04T11:46:55.292Z,11.20
2023-02-04T11:49:24.631Z,11.34
2023-02-04T11:51:51.406Z,11.55
2023-02-04T11:54:19.223Z,11.61
2023-02-04T11:56:47.048Z,11.64
2023-02-04T11:59:14.879Z,11.82
2023-02-04T12:01:41.568Z,11.57
2023-02-04T12:04:22.516Z,11.48
2023-02-04T12:07:03.784Z,11.42
2023-02-04T12:09:31.509Z,11.08
2023-02-04T12:12:03.084Z,11.17
2023-02-04T12:14:33.605Z,11.32
2023-02-04T12:17:00.288Z,11.39
2023-02-04T12:19:27.857Z,11.30
2023-02-04T12:21:55.757Z,11.18
2023-02-04T12:24:22.760Z,11.16
2023-02-04T12:26:49.728Z,11.23
2023-02-04T12:29:16.340Z,11.28
2023-02-04T12:31:43.066Z,11.30
2023-02-04T12:34:09.736Z,11.48
2023-02-04T12:36:36.353Z,11.41
2023-02-04T12:39:03.633Z,11.38
2023-02-04T12:41:30.630Z,11.30
2023-02-04T12:43:57.238Z,11.20
2023-02-04T12:46:23.958Z,11.13
2023-02-04T12:48:50.634Z,10.96
2023-02-04T12:51:17.600Z,11.04
2023-02-04T12:53:44.178Z,10.85
2023-02-04T12:56:10.844Z,10.72
2023-02-04T12:58:37.449Z,10.80
2023-02-04T13:01:04.593Z,10.81
2023-02-04T13:03:32.156Z,10.85
2023-02-04T13:05:59.344Z,10.87
2023-02-04T13:08:26.035Z,10.96
2023-02-04T13:10:52.741Z,11.03
2023-02-04T13:13:20.071Z,11.31
2023-02-04T13:15:48.093Z,11.15
2023-02-04T13:18:17.370Z,11.05
2023-02-04T13:20:45.918Z,11.07
2023-02-04T13:23:13.008Z,11.08
2023-02-04T13:25:39.696Z,11.01
2023-02-04T13:28:06.455Z,10.96
2023-02-04T13:30:33.182Z,11.10
2023-02-04T13:32:59.835Z,11.09
2023-02-04T13:35:26.608Z,10.99
2023-02-04T13:37:54.093Z,11.13
2023-02-04T13:40:21.849Z,10.96
2023-02-04T13:42:48.534Z,11.07
2023-02-04T13:45:16.251Z,10.94
2023-02-04T13:47:42.940Z,11.10
2023-02-04T13:50:10.098Z,11.03
2023-02-04T13:52:37.703Z,11.07
2023-02-04T13:55:04.555Z,11.02
2023-02-04T13:57:32.827Z,11.12
2023-02-04T13:59:59.451Z,11.02
2023-02-04T14:02:26.139Z,10.94
2023-02-04T14:04:52.809Z,10.84
2023-02-04T14:07:19.487Z,10.91
2023-02-04T14:09:48.203Z,10.88
2023-02-04T14:12:15.436Z,10.79
2023-02-04T14:14:42.075Z,10.68
2023-02-04T14:17:08.717Z,10.63
2023-02-04T14:19:35.311Z,10.56
2023-02-04T14:22:02.737Z,10.36
2023-02-04T14:24:29.347Z,10.54
2023-02-04T14:26:56.156Z,10.57
2023-02-04T14:29:22.730Z,10.58
2023-02-04T14:31:49.361Z,10.47
2023-02-04T14:34:15.953Z,10.31
2023-02-04T14:36:42.585Z,10.42
2023-02-04T14:39:09.193Z,10.29
2023-02-04T14:41:35.789Z,10.32
2023-02-04T14:44:02.380Z,10.34
2023-02-04T14:46:29.157Z,10.31
2023-02-04T14:48:55.784Z,10.28
2023-02-04T14:51:22.594Z,10.40
2023-02-04T14:53:49.298Z,10.37
2023-02-04T14:56:16.903Z,10.21
2023-02-04T14:58:43.581Z,10.21
2023-02-04T15:01:10.414Z,10.04
2023-02-04T15:03:37.110Z,10.26
2023-02-04T15:06:04.184Z,10.55
2023-02-04T15:08:32.675Z,10.85
2023-02-04T15:10:59.323Z,10.82
2023-02-04T15:13:27.892Z,10.58
2023-02-04T15:15:54.525Z,10.48
2023-02-04T15:18:21.453Z,10.33
2023-02-04T15:20:48.020Z,10.24
2023-02-04T15:23:15.128Z,10.33
2023-02-04T15:25:41.881Z,10.10
2023-02-04T15:28:11.674Z,10.17
2023-02-04T15:30:39.292Z,10.29
2023-02-04T15:33:05.984Z,10.29
2023-02-04T15:35:32.636Z,10.11
2023-02-04T15:37:59.330Z,10.15
2023-02-04T15:40:29.861Z,10.10
2023-02-04T15:42:56.579Z,10.15
2023-02-04T15:45:23.201Z,10.05
2023-02-04T15:47:50.516Z,9.98
2023-02-04T15:50:17.584Z,9.93
2023-02-04T15:52:44.796Z,10.02
2023-02-04T15:55:11.418Z,9.91
2023-02-04T15:57:38.540Z,9.80
2023-02-04T16:00:06.379Z,9.80
2023-02-04T16:02:33.257Z,9.94
2023-02-04T16:05:00.188Z,9.91
2023-02-04T16:07:26.833Z,10.01
2023-02-04T16:09:53.398Z,10.00
2023-02-04T16:12:19.980Z,9.94
2023-02-04T16:14:46.542Z,9.81
2023-02-04T16:17:13.258Z,9.71
2023-02-04T16:19:39.939Z,9.74
2023-02-04T16:22:07.133Z,9.69
2023-02-04T16:24:34.296Z,9.65
2023-02-04T16:27:00.933Z,9.68
2023-02-04T16:29:27.678Z,9.32
2023-02-04T16:31:54.307Z,9.52
2023-02-04T16:34:20.946Z,9.67
2023-02-04T16:36:47.606Z,9.60
2023-02-04T16:39:14.308Z,9.61
2023-02-04T16:41:40.928Z,9.69
2023-02-04T16:44:07.783Z,9.67
2023-02-04T16:46:34.462Z,9.64
2023-02-04T16:49:01.201Z,9.55
2023-02-04T16:51:28.511Z,9.59
2023-02-04T16:53:55.389Z,9.69
2023-02-04T16:56:21.970Z,9.74
2023-02-04T16:58:48.608Z,9.67
2023-02-04T17:01:17.228Z,9.43
2023-02-04T17:03:44.517Z,9.56
2023-02-04T17:06:14.009Z,9.60
2023-02-04T17:08:40.751Z,9.32
2023-02-04T17:11:25.916Z,9.31
2023-02-04T17:13:52.574Z,9.42
2023-02-04T17:16:19.690Z,9.29
2023-02-04T17:18:46.304Z,9.45
2023-02-04T17:21:12.989Z,9.35
2023-02-04T17:23:40.095Z,9.42
2023-02-04T17:26:06.768Z,9.52
2023-02-04T17:28:33.433Z,9.43
2023-02-04T17:31:00.304Z,9.37
2023-02-04T17:33:28.204Z,9.40
2023-02-04T17:35:54.989Z,9.29
2023-02-04T17:38:22.350Z,9.18
2023-02-04T17:40:50.100Z,9.36
2023-02-04T17:43:17.513Z,9.11
2023-02-04T17:45:44.142Z,9.15
2023-02-04T17:48:10.809Z,9.13
2023-02-04T17:50:40.072Z,9.17
2023-02-04T17:53:08.051Z,9.21
2023-02-04T17:55:35.752Z,9.25
2023-02-04T17:58:11.830Z,9.27
2023-02-04T18:00:38.835Z,9.23
2023-02-04T18:03:05.979Z,9.10
2023-02-04T18:05:35.048Z,9.22
2023-02-04T18:08:18.681Z,9.26
2023-02-04T18:10:47.807Z,9.22
2023-02-04T18:13:29.529Z,9.06
2023-02-04T18:15:58.873Z,9.22
2023-02-04T18:18:35.891Z,9.26
2023-02-04T18:21:19.130Z,9.19
2023-02-04T18:23:46.304Z,9.11
2023-02-04T18:26:16.665Z,8.87
2023-02-04T18:28:47.592Z,8.93
2023-02-04T18:31:36.331Z,8.88
2023-02-04T18:34:21.259Z,8.89
2023-02-04T18:36:48.492Z,8.85
2023-02-04T18:39:21.410Z,8.97
2023-02-04T18:41:50.794Z,8.64
2023-02-04T18:44:30.503Z,8.77
2023-02-04T18:46:57.521Z,8.79
2023-02-04T18:49:29.571Z,8.84
2023-02-04T18:51:58.769Z,8.95
2023-02-04T18:54:35.216Z,8.91
2023-02-04T18:57:36.211Z,8.87
2023-02-04T19:00:08.601Z,8.75
2023-02-04T19:02:47.705Z,8.90
2023-02-04T19:05:33.803Z,8.97
2023-02-04T19:08:06.534Z,8.86
2023-02-04T19:10:37.175Z,8.44
2023-02-04T19:13:40.665Z,8.70
2023-02-04T19:16:19.885Z,8.62
2023-02-04T19:18:47.034Z,8.65
2023-02-04T19:21:19.563Z,8.68
2023-02-04T19:23:46.656Z,8.62
2023-02-04T19:26:28.651Z,8.54
2023-02-04T19:28:56.135Z,8.58
2023-02-04T19:31:22.939Z,8.55
2023-02-04T19:33:54.336Z,8.61
2023-02-04T19:36:30.968Z,8.72
2023-02-04T19:39:41.483Z,8.60
2023-02-04T19:42:29.579Z,8.42
2023-02-04T19:44:59.416Z,8.40
2023-02-04T19:47:41.625Z,8.27
2023-02-04T19:50:14.146Z,8.19
2023-02-04T19:52:49.123Z,8.12
2023-02-04T19:55:21.745Z,8.13
2023-02-04T19:57:51.319Z,8.01
2023-02-04T20:00:34.237Z,8.12
2023-02-04T20:03:02.208Z,8.33
2023-02-04T20:05:32.805Z,8.23
2023-02-04T20:08:36.880Z,8.07
2023-02-04T20:11:15.395Z,8.10
2023-02-04T20:13:41.965Z,8.11
2023-02-04T20:16:39.418Z,8.12
2023-02-04T20:19:18.294Z,8.41
2023-02-04T20:21:51.631Z,8.44
2023-02-04T20:24:18.348Z,8.14
2023-02-04T20:26:45.445Z,8.13
2023-02-04T20:29:21.226Z,7.97
2023-02-04T20:31:48.080Z,7.98
2023-02-04T20:34:22.366Z,7.99
2023-02-04T20:36:51.967Z,7.96
2023-02-04T20:39:48.485Z,8.01
2023-02-04T20:42:34.595Z,8.24
2023-02-04T20:45:43.331Z,8.14
2023-02-04T20:48:15.994Z,8.07
2023-02-04T20:50:56.751Z,7.94
2023-02-04T20:53:26.758Z,8.01
2023-02-04T20:56:05.047Z,8.10
2023-02-04T20:58:36.619Z,7.99
2023-02-04T21:01:19.307Z,7.84
2023-02-04T21:03:46.280Z,7.81
2023-02-04T21:06:25.837Z,7.80
2023-02-04T21:08:54.250Z,7.62
2023-02-04T21:11:22.077Z,7.66
2023-02-04T21:13:50.166Z,7.70
2023-02-04T21:16:17.412Z,7.80
2023-02-04T21:18:46.204Z,7.78
2023-02-04T21:21:13.484Z,7.91
2023-02-04T21:23:40.690Z,7.84
2023-02-04T21:26:07.591Z,7.83
2023-02-04T21:28:34.432Z,7.90
2023-02-04T21:31:01.399Z,7.84
2023-02-04T21:33:28.112Z,7.65
2023-02-04T21:35:55.075Z,7.89
2023-02-04T21:38:21.726Z,7.83
2023-02-04T21:40:48.558Z,7.76
2023-02-04T21:43:15.329Z,7.75
2023-02-04T21:45:42.150Z,7.68
2023-02-04T21:48:09.116Z,7.56
2023-02-04T21:50:38.296Z,7.49
2023-02-04T21:53:05.922Z,7.44
2023-02-04T21:55:32.848Z,7.57
2023-02-04T21:58:00.055Z,7.58
2023-02-04T22:00:27.656Z,7.48
2023-02-04T22:02:54.469Z,7.43
2023-02-04T22:05:22.043Z,7.46
2023-02-04T22:07:49.180Z,7.55
2023-02-04T22:10:18.880Z,7.57
2023-02-04T22:12:45.534Z,7.45
2023-02-04T22:15:12.240Z,7.30
2023-02-04T22:17:38.902Z,7.20
2023-02-04T22:20:05.990Z,7.19
2023-02-04T22:22:32.725Z,7.17
2023-02-04T22:24:59.489Z,7.12
2023-02-04T22:27:26.237Z,7.13
2023-02-04T22:29:52.931Z,7.19
2023-02-04T22:32:19.505Z,7.31
2023-02-04T22:34:46.083Z,7.25
2023-02-04T22:37:12.876Z,7.15
2023-02-04T22:39:39.549Z,7.12
2023-02-04T22:42:08.446Z,7.01
2023-02-04T22:44:35.179Z,7.04
2023-02-04T22:47:01.901Z,7.05
2023-02-04T22:49:29.152Z,7.02
2023-02-04T22:51:55.824Z,7.05
2023-02-04T22:54:22.431Z,7.06
2023-02-04T22:56:49.071Z,7.04
2023-02-04T22:59:15.723Z,6.96
2023-02-04T23:01:42.337Z,6.96
2023-02-04T23:04:09.000Z,6.95
2023-02-04T23:06:36.738Z,6.95
2023-02-04T23:09:03.919Z,6.73
2023-02-04T23:11:30.569Z,6.79
2023-02-04T23:13:57.215Z,6.99
2023-02-04T23:16:23.998Z,7.02
2023-02-04T23:18:50.591Z,6.98
2023-02-04T23:21:17.501Z,7.02
2023-02-04T23:23:44.154Z,6.97
2023-02-04T23:26:10.979Z,7.01
2023-02-04T23:28:38.145Z,6.88
2023-02-04T23:31:04.964Z,6.87
2023-02-04T23:33:31.581Z,6.70
2023-02-04T23:35:58.635Z,6.95
2023-02-04T23:38:25.443Z,7.07
2023-02-04T23:40:52.078Z,7.03
2023-02-04T23:43:18.734Z,7.03
2023-02-04T23:45:45.855Z,7.11
2023-02-04T23:48:12.819Z,6.99
2023-02-04T23:50:39.457Z,6.91
2023-02-04T23:53:06.215Z,7.04
2023-02-04T23:55:33.393Z,7.03
2023-02-04T23:58:00.418Z,7.07
